sensor_id;sensor_type;location;lat;lon;timestamp;P1;durP1;ratioP1;P2;durP2;ratioP2
46597;SDS011;32318;48.858;8.252;2022-07-12T00:00:58;7.63;;;3.05;;
46597;SDS011;32318;48.858;8.252;2022-07-12T00:08:58;5.95;;;2.72;;
46597;SDS011;32318;48.858;8.252;2022-07-12T00:16:58;5.60;;;2.70;;
46597;SDS011;32318;48.858;8.252;2022-07-12T00:24:59;4.20;;;2.50;;
46597;SDS011;32318;48.858;8.252;2022-07-12T00:33:00;6.00;;;2.55;;
46597;SDS011;32318;48.858;8.252;2022-07-12T00:41:00;3.80;;;2.45;;
46597;SDS011;32318;48.858;8.252;2022-07-12T00:49:00;6.47;;;2.90;;
46597;SDS011;32318;48.858;8.252;2022-07-12T00:57:01;2.95;;;2.08;;
46597;SDS011;32318;48.858;8.252;2022-07-12T01:05:02;1.85;;;1.40;;
46597;SDS011;32318;48.858;8.252;2022-07-12T01:13:07;6.32;;;1.60;;
46597;SDS011;32318;48.858;8.252;2022-07-12T01:21:18;5.25;;;1.48;;
46597;SDS011;32318;48.858;8.252;2022-07-12T01:29:22;2.72;;;1.60;;
46597;SDS011;32318;48.858;8.252;2022-07-12T01:37:23;2.30;;;1.60;;
46597;SDS011;32318;48.858;8.252;2022-07-12T01:45:24;1.90;;;1.58;;
46597;SDS011;32318;48.858;8.252;2022-07-12T01:53:25;5.15;;;1.80;;
46597;SDS011;32318;48.858;8.252;2022-07-12T02:01:27;6.25;;;1.90;;
46597;SDS011;32318;48.858;8.252;2022-07-12T02:09:27;5.28;;;1.70;;
46597;SDS011;32318;48.858;8.252;2022-07-12T02:17:28;2.05;;;1.70;;
46597;SDS011;32318;48.858;8.252;2022-07-12T02:25:28;2.78;;;1.60;;
46597;SDS011;32318;48.858;8.252;2022-07-12T02:33:28;14.00;;;1.88;;
46597;SDS011;32318;48.858;8.252;2022-07-12T02:41:29;3.38;;;2.05;;
46597;SDS011;32318;48.858;8.252;2022-07-12T02:49:30;2.03;;;1.50;;
46597;SDS011;32318;48.858;8.252;2022-07-12T02:57:30;3.50;;;1.80;;
46597;SDS011;32318;48.858;8.252;2022-07-12T03:05:30;5.82;;;1.92;;
46597;SDS011;32318;48.858;8.252;2022-07-12T03:13:31;2.83;;;2.00;;
46597;SDS011;32318;48.858;8.252;2022-07-12T03:21:31;2.63;;;2.00;;
46597;SDS011;32318;48.858;8.252;2022-07-12T03:29:31;7.18;;;2.20;;
46597;SDS011;32318;48.858;8.252;2022-07-12T03:37:48;3.45;;;2.38;;
46597;SDS011;32318;48.858;8.252;2022-07-12T03:45:49;4.45;;;2.47;;
46597;SDS011;32318;48.858;8.252;2022-07-12T03:53:50;7.45;;;2.15;;
46597;SDS011;32318;48.858;8.252;2022-07-12T04:01:50;9.85;;;3.58;;
46597;SDS011;32318;48.858;8.252;2022-07-12T04:09:50;9.77;;;2.78;;
46597;SDS011;32318;48.858;8.252;2022-07-12T04:17:51;5.78;;;2.38;;
46597;SDS011;32318;48.858;8.252;2022-07-12T04:25:51;5.20;;;2.55;;
46597;SDS011;32318;48.858;8.252;2022-07-12T04:33:52;3.88;;;2.13;;
46597;SDS011;32318;48.858;8.252;2022-07-12T04:41:52;16.05;;;2.40;;
46597;SDS011;32318;48.858;8.252;2022-07-12T04:49:52;7.75;;;2.47;;
46597;SDS011;32318;48.858;8.252;2022-07-12T04:58:00;7.55;;;2.85;;
46597;SDS011;32318;48.858;8.252;2022-07-12T05:06:08;6.87;;;2.77;;
46597;SDS011;32318;48.858;8.252;2022-07-12T05:14:09;4.32;;;2.53;;
46597;SDS011;32318;48.858;8.252;2022-07-12T05:22:12;4.45;;;2.20;;
46597;SDS011;32318;48.858;8.252;2022-07-12T05:38:40;13.18;;;2.42;;
46597;SDS011;32318;48.858;8.252;2022-07-12T05:46:40;8.55;;;2.40;;
46597;SDS011;32318;48.858;8.252;2022-07-12T05:54:40;9.60;;;2.10;;
46597;SDS011;32318;48.858;8.252;2022-07-12T06:02:41;4.28;;;1.83;;
46597;SDS011;32318;48.858;8.252;2022-07-12T06:10:41;2.33;;;1.55;;
46597;SDS011;32318;48.858;8.252;2022-07-12T06:18:42;8.85;;;1.30;;
46597;SDS011;32318;48.858;8.252;2022-07-12T06:26:42;5.32;;;1.50;;
46597;SDS011;32318;48.858;8.252;2022-07-12T06:34:42;1.52;;;1.35;;
46597;SDS011;32318;48.858;8.252;2022-07-12T06:42:43;7.10;;;1.08;;
46597;SDS011;32318;48.858;8.252;2022-07-12T06:50:43;4.25;;;0.88;;
46597;SDS011;32318;48.858;8.252;2022-07-12T06:58:44;5.95;;;1.00;;
46597;SDS011;32318;48.858;8.252;2022-07-12T07:06:44;3.00;;;1.10;;
46597;SDS011;32318;48.858;8.252;2022-07-12T07:14:44;2.33;;;0.70;;
46597;SDS011;32318;48.858;8.252;2022-07-12T07:22:44;2.97;;;1.05;;
46597;SDS011;32318;48.858;8.252;2022-07-12T07:30:45;0.75;;;0.60;;
46597;SDS011;32318;48.858;8.252;2022-07-12T07:38:54;0.70;;;0.52;;
46597;SDS011;32318;48.858;8.252;2022-07-12T07:46:55;0.67;;;0.50;;
46597;SDS011;32318;48.858;8.252;2022-07-12T07:54:56;4.38;;;0.52;;
46597;SDS011;32318;48.858;8.252;2022-07-12T08:02:56;1.80;;;0.50;;
46597;SDS011;32318;48.858;8.252;2022-07-12T08:10:57;1.52;;;0.47;;
46597;SDS011;32318;48.858;8.252;2022-07-12T08:18:57;2.05;;;0.50;;
46597;SDS011;32318;48.858;8.252;2022-07-12T08:26:58;0.40;;;0.40;;
46597;SDS011;32318;48.858;8.252;2022-07-12T08:34:58;2.90;;;0.93;;
46597;SDS011;32318;48.858;8.252;2022-07-12T08:42:58;3.40;;;0.45;;
46597;SDS011;32318;48.858;8.252;2022-07-12T08:51:00;1.60;;;0.50;;
46597;SDS011;32318;48.858;8.252;2022-07-12T09:07:16;0.82;;;0.38;;
46597;SDS011;32318;48.858;8.252;2022-07-12T09:15:18;1.60;;;0.70;;
46597;SDS011;32318;48.858;8.252;2022-07-12T09:23:19;1.25;;;0.50;;
46597;SDS011;32318;48.858;8.252;2022-07-12T09:31:19;1.08;;;0.60;;
46597;SDS011;32318;48.858;8.252;2022-07-12T09:39:20;1.45;;;0.98;;
46597;SDS011;32318;48.858;8.252;2022-07-12T09:47:25;3.15;;;1.20;;
46597;SDS011;32318;48.858;8.252;2022-07-12T09:55:26;27.00;;;1.73;;
46597;SDS011;32318;48.858;8.252;2022-07-12T10:03:30;7.00;;;0.80;;
46597;SDS011;32318;48.858;8.252;2022-07-12T10:11:33;1.63;;;0.60;;
46597;SDS011;32318;48.858;8.252;2022-07-12T10:19:33;1.00;;;0.40;;
46597;SDS011;32318;48.858;8.252;2022-07-12T10:27:36;0.55;;;0.40;;
46597;SDS011;32318;48.858;8.252;2022-07-12T10:35:37;1.02;;;0.50;;
46597;SDS011;32318;48.858;8.252;2022-07-12T10:43:38;1.58;;;0.47;;
46597;SDS011;32318;48.858;8.252;2022-07-12T11:00:13;0.60;;;0.45;;
46597;SDS011;32318;48.858;8.252;2022-07-12T11:08:15;3.55;;;0.50;;
46597;SDS011;32318;48.858;8.252;2022-07-12T11:16:16;1.13;;;0.35;;
46597;SDS011;32318;48.858;8.252;2022-07-12T11:24:17;3.70;;;0.52;;
46597;SDS011;32318;48.858;8.252;2022-07-12T11:32:19;2.33;;;0.80;;
46597;SDS011;32318;48.858;8.252;2022-07-12T11:40:33;0.98;;;0.30;;
46597;SDS011;32318;48.858;8.252;2022-07-12T11:48:34;0.83;;;0.33;;
46597;SDS011;32318;48.858;8.252;2022-07-12T11:56:36;1.15;;;0.50;;
46597;SDS011;32318;48.858;8.252;2022-07-12T12:04:49;1.45;;;0.25;;
46597;SDS011;32318;48.858;8.252;2022-07-12T12:12:51;0.50;;;0.40;;
46597;SDS011;32318;48.858;8.252;2022-07-12T12:20:56;4.13;;;0.40;;
46597;SDS011;32318;48.858;8.252;2022-07-12T12:28:57;3.75;;;0.82;;
46597;SDS011;32318;48.858;8.252;2022-07-12T12:37:03;8.68;;;0.60;;
46597;SDS011;32318;48.858;8.252;2022-07-12T12:45:03;0.68;;;0.30;;
46597;SDS011;32318;48.858;8.252;2022-07-12T12:53:07;0.90;;;0.38;;
46597;SDS011;32318;48.858;8.252;2022-07-12T13:01:10;1.33;;;0.50;;
46597;SDS011;32318;48.858;8.252;2022-07-12T13:09:10;0.43;;;0.30;;
46597;SDS011;32318;48.858;8.252;2022-07-12T13:17:11;0.60;;;0.30;;
46597;SDS011;32318;48.858;8.252;2022-07-12T13:25:11;10.20;;;0.70;;
46597;SDS011;32318;48.858;8.252;2022-07-12T13:33:13;0.73;;;0.40;;
46597;SDS011;32318;48.858;8.252;2022-07-12T13:41:13;7.13;;;0.63;;
46597;SDS011;32318;48.858;8.252;2022-07-12T13:49:13;0.65;;;0.40;;
46597;SDS011;32318;48.858;8.252;2022-07-12T13:57:14;0.70;;;0.40;;
46597;SDS011;32318;48.858;8.252;2022-07-12T14:05:15;2.85;;;0.50;;
46597;SDS011;32318;48.858;8.252;2022-07-12T14:13:16;2.63;;;0.63;;
46597;SDS011;32318;48.858;8.252;2022-07-12T14:21:17;0.93;;;0.37;;
46597;SDS011;32318;48.858;8.252;2022-07-12T14:29:17;0.85;;;0.47;;
46597;SDS011;32318;48.858;8.252;2022-07-12T14:37:17;1.17;;;0.50;;
46597;SDS011;32318;48.858;8.252;2022-07-12T14:45:18;0.93;;;0.30;;
46597;SDS011;32318;48.858;8.252;2022-07-12T14:53:18;3.80;;;0.43;;
46597;SDS011;32318;48.858;8.252;2022-07-12T15:01:19;4.65;;;0.60;;
46597;SDS011;32318;48.858;8.252;2022-07-12T15:09:19;0.87;;;0.40;;
46597;SDS011;32318;48.858;8.252;2022-07-12T15:17:19;2.33;;;0.50;;
46597;SDS011;32318;48.858;8.252;2022-07-12T15:25:20;0.50;;;0.30;;
46597;SDS011;32318;48.858;8.252;2022-07-12T15:33:20;1.55;;;0.40;;
46597;SDS011;32318;48.858;8.252;2022-07-12T15:41:22;1.20;;;0.30;;
46597;SDS011;32318;48.858;8.252;2022-07-12T15:49:22;1.38;;;0.40;;
46597;SDS011;32318;48.858;8.252;2022-07-12T15:57:23;0.52;;;0.43;;
46597;SDS011;32318;48.858;8.252;2022-07-12T16:05:23;0.90;;;0.30;;
46597;SDS011;32318;48.858;8.252;2022-07-12T16:13:24;1.98;;;0.40;;
46597;SDS011;32318;48.858;8.252;2022-07-12T16:21:24;6.30;;;0.70;;
46597;SDS011;32318;48.858;8.252;2022-07-12T16:29:24;6.20;;;0.70;;
46597;SDS011;32318;48.858;8.252;2022-07-12T16:37:25;1.42;;;0.30;;
46597;SDS011;32318;48.858;8.252;2022-07-12T16:45:25;1.70;;;0.57;;
46597;SDS011;32318;48.858;8.252;2022-07-12T16:53:28;0.93;;;0.40;;
46597;SDS011;32318;48.858;8.252;2022-07-12T17:01:31;1.45;;;0.40;;
46597;SDS011;32318;48.858;8.252;2022-07-12T17:09:32;2.58;;;0.50;;
46597;SDS011;32318;48.858;8.252;2022-07-12T17:17:32;5.88;;;0.50;;
46597;SDS011;32318;48.858;8.252;2022-07-12T17:25:32;4.75;;;0.60;;
46597;SDS011;32318;48.858;8.252;2022-07-12T17:33:33;1.95;;;0.30;;
46597;SDS011;32318;48.858;8.252;2022-07-12T17:41:33;3.10;;;0.43;;
46597;SDS011;32318;48.858;8.252;2022-07-12T17:49:34;0.93;;;0.40;;
46597;SDS011;32318;48.858;8.252;2022-07-12T17:57:34;1.85;;;0.40;;
46597;SDS011;32318;48.858;8.252;2022-07-12T18:05:34;0.85;;;0.43;;
46597;SDS011;32318;48.858;8.252;2022-07-12T18:13:35;2.70;;;0.40;;
46597;SDS011;32318;48.858;8.252;2022-07-12T18:21:53;8.63;;;0.70;;
46597;SDS011;32318;48.858;8.252;2022-07-12T18:29:54;6.03;;;1.02;;
46597;SDS011;32318;48.858;8.252;2022-07-12T18:37:54;6.88;;;0.73;;
46597;SDS011;32318;48.858;8.252;2022-07-12T18:45:57;0.47;;;0.47;;
46597;SDS011;32318;48.858;8.252;2022-07-12T18:53:57;4.57;;;0.80;;
46597;SDS011;32318;48.858;8.252;2022-07-12T19:01:58;4.80;;;0.70;;
46597;SDS011;32318;48.858;8.252;2022-07-12T19:09:58;9.75;;;0.80;;
46597;SDS011;32318;48.858;8.252;2022-07-12T19:17:58;5.63;;;0.90;;
46597;SDS011;32318;48.858;8.252;2022-07-12T19:25:58;5.47;;;1.05;;
46597;SDS011;32318;48.858;8.252;2022-07-12T19:33:59;5.80;;;0.90;;
46597;SDS011;32318;48.858;8.252;2022-07-12T19:41:59;5.90;;;1.20;;
46597;SDS011;32318;48.858;8.252;2022-07-12T19:49:59;21.55;;;1.60;;
46597;SDS011;32318;48.858;8.252;2022-07-12T19:58:00;15.30;;;2.38;;
46597;SDS011;32318;48.858;8.252;2022-07-12T20:06:00;9.10;;;1.60;;
46597;SDS011;32318;48.858;8.252;2022-07-12T20:14:01;3.92;;;0.80;;
46597;SDS011;32318;48.858;8.252;2022-07-12T20:22:03;4.47;;;1.05;;
46597;SDS011;32318;48.858;8.252;2022-07-12T20:30:04;11.05;;;1.23;;
46597;SDS011;32318;48.858;8.252;2022-07-12T20:38:04;2.30;;;0.90;;
46597;SDS011;32318;48.858;8.252;2022-07-12T20:46:05;6.28;;;0.57;;
46597;SDS011;32318;48.858;8.252;2022-07-12T20:54:06;5.47;;;1.08;;
46597;SDS011;32318;48.858;8.252;2022-07-12T21:02:06;14.13;;;1.50;;
46597;SDS011;32318;48.858;8.252;2022-07-12T21:10:07;4.93;;;1.00;;
46597;SDS011;32318;48.858;8.252;2022-07-12T21:18:08;7.72;;;1.08;;
46597;SDS011;32318;48.858;8.252;2022-07-12T21:26:08;3.60;;;0.77;;
46597;SDS011;32318;48.858;8.252;2022-07-12T21:34:08;1.10;;;0.80;;
46597;SDS011;32318;48.858;8.252;2022-07-12T21:42:09;4.47;;;1.00;;
46597;SDS011;32318;48.858;8.252;2022-07-12T21:50:09;1.77;;;0.80;;
46597;SDS011;32318;48.858;8.252;2022-07-12T21:58:10;2.58;;;0.70;;
46597;SDS011;32318;48.858;8.252;2022-07-12T22:06:10;1.38;;;0.60;;
46597;SDS011;32318;48.858;8.252;2022-07-12T22:14:10;9.13;;;0.70;;
46597;SDS011;32318;48.858;8.252;2022-07-12T22:22:10;3.58;;;0.60;;
46597;SDS011;32318;48.858;8.252;2022-07-12T22:30:11;2.22;;;0.70;;
46597;SDS011;32318;48.858;8.252;2022-07-12T22:38:11;3.13;;;0.70;;
46597;SDS011;32318;48.858;8.252;2022-07-12T22:46:11;4.50;;;0.80;;
46597;SDS011;32318;48.858;8.252;2022-07-12T22:54:13;2.58;;;0.60;;
46597;SDS011;32318;48.858;8.252;2022-07-12T23:02:13;2.75;;;0.60;;
46597;SDS011;32318;48.858;8.252;2022-07-12T23:10:13;2.20;;;0.60;;
46597;SDS011;32318;48.858;8.252;2022-07-12T23:18:14;1.33;;;0.60;;
46597;SDS011;32318;48.858;8.252;2022-07-12T23:26:14;1.10;;;0.60;;
46597;SDS011;32318;48.858;8.252;2022-07-12T23:34:14;3.63;;;0.50;;
46597;SDS011;32318;48.858;8.252;2022-07-12T23:42:15;0.50;;;0.40;;
46597;SDS011;32318;48.858;8.252;2022-07-12T23:50:15;3.45;;;0.60;;
46597;SDS011;32318;48.858;8.252;2022-07-12T23:58:15;2.20;;;0.63;;
